YM Venus — 9HCB8 — position and weather

sailwx.info

Track history (hours):
 
Tides and Currents Weather Stations Pressure Air Temp Water Temp Dewpoint Dewpoint Depression Visibility Wind Speed Wind Dir Waves Ship Positions

YM Venus

Last reported at 2014-Sep-15 17:18 UTC. Time now 2014-Sep-16 17:25 UTC.
Position N 37°26' E 010°59'.

Length 105 m; draft 6.7 m.

Type: Tanker. MMSI: 215826000.

Date/timePositionNaut miles runAvg speedWind from/ knotsBaromVisibWave heightAir tempDewpointWater temp
2014-Sep-15 17:18N 37°26' E 010°59'6411.1
2014-Sep-15 11:33N 37°03' E 012°14'1211.6
2014-Sep-15 10:33N 36°59' E 012°27'1212.1
2014-Sep-15 09:34N 36°54' E 012°41'1212.1
2014-Sep-15 08:34N 36°49' E 012°55'1212.0
2014-Sep-15 07:33N 36°44' E 013°08'1211.7
2014-Sep-15 06:33N 36°39' E 013°22'1111.3
2014-Sep-15 05:33N 36°34' E 013°34'1111.1
2014-Sep-15 04:33N 36°28' E 013°46'1110.8
2014-Sep-15 03:33N 36°24' E 013°58'1111.0
2014-Sep-15 02:34N 36°24' E 014°12'1211.7
2014-Sep-15 01:33N 36°27' E 014°26'1311.7
2014-Sep-15 00:29N 36°29' E 014°41'  
Track history (hours):
 
Tides and Currents Weather Stations Pressure Air Temp Water Temp Dewpoint Dewpoint Depression Visibility Wind Speed Wind Dir Waves Ship Positions

YM Venus

Last reported at 2014-Sep-15 17:18 UTC. Time now 2014-Sep-16 17:25 UTC.
Position N 37°26' E 010°59'.

Length 105 m; draft 6.7 m.

Type: Tanker. MMSI: 215826000.

Date/timePositionNaut miles runAvg speedWind from/ knotsBaromVisibWave heightAir tempDewpointWater temp
2014-Sep-15 17:18N 37°26' E 010°59'6411.1
2014-Sep-15 11:33N 37°03' E 012°14'1211.6
2014-Sep-15 10:33N 36°59' E 012°27'1212.1
2014-Sep-15 09:34N 36°54' E 012°41'1212.1
2014-Sep-15 08:34N 36°49' E 012°55'1212.0
2014-Sep-15 07:33N 36°44' E 013°08'1211.7
2014-Sep-15 06:33N 36°39' E 013°22'1111.3
2014-Sep-15 05:33N 36°34' E 013°34'1111.1
2014-Sep-15 04:33N 36°28' E 013°46'1110.8
2014-Sep-15 03:33N 36°24' E 013°58'1111.0
2014-Sep-15 02:34N 36°24' E 014°12'1211.7
2014-Sep-15 01:33N 36°27' E 014°26'1311.7
2014-Sep-15 00:29N 36°29' E 014°41'  

Dump ship's entire track history